Hauptseite
METAR-TAF:

METAR-TAF

Flughäfen :

Belgrad, Serbien

Nikola-Tesla-Flughafen Belgrad

Breite: 44-49N, Länge: 020-17E, Höhe: 96 m

Beobachtung

Neuester Wetterbericht von vor 14 Minuten, um 05:00 UTC
Wind 9 kt aus West
Temperatur 5°C
Luftfeuchtigkeit 87%
Luftdruck 1016 hPa
Sichtweite: 7000 m
Aufgelockert bewölkt in der Höhe von 4500 ft

METAR: LYBE 260500Z 26009KT 7000 SCT045 05/03 Q1016 NOSIG

Zeit: 07:14 (05:14 UTC)

Prognose

Neuester Wetterbericht von vor 6 Stunden und 14 Minuten, um 23:00 UTC
Gültige Prognose vom 26 um 00 UTC bis 26 um 24 UTC
Wind 4 kt aus Nordwest
Sichtweite 10 km oder mehr
keine Wolken unter 1500 m und keine Kumulonimbus oder Gewitterwolken
Übergehend zu
vom 26 um 07 UTC bis 26 um 09 UTC
Wind 12 kt aus Nord

TAF: LYBE 252300Z 2600/2624 32004KT CAVOK TX12/2612Z TN03/2624Z BECMG 2607/2609 35012KT

Wetterbeobachtungen und Prognosen von mehr als 4000 Flughäfen (METAR und TAF Bericht).

Die verfügbaren Stationen werden durch gelbe und rote Markierungen auf der Karte dargestellt.

Führen Sie die Maus auf sie, um den Namen der Station zu sehen.

Darauf klicken, um die Beobachtung von Wetterbeobachtungen und Prognosen zu sehen.

Um die Karte zu ändern : klicken Sie auf den grünen Tasten mit einem schwarzen Kreuz Zum Vergrößern, auf den grünen Button mit einem Gedankenstrich zu verkleinern, oder auf die grünen Pfeile für benachbarte Karten.


METAR-TAF: